Time;durP1;ratioP1;P1;durP2;ratioP2;P2;SDS_P1;SDS_P2;PMS_P1;PMS_P2;Temp;Humidity;BMP_temperature;BMP_pressure;BME280_temperature;BME280_humidity;BME280_pressure;Samples;Min_cycle;Max_cycle;Signal;HPM_P1;HPM_P2
2022/08/24 00:00:19;;;;;;;3.47;1.45;;;30.10;54.60;;;;;;10473835;28;20211;-37
2022/08/24 00:05:21;;;;;;;2.45;1.50;;;30.10;54.70;;;;;;10478509;28;20108;-43
2022/08/24 00:10:23;;;;;;;3.70;1.10;;;30.10;54.70;;;;;;10486040;28;20044;-44
2022/08/24 00:15:27;;;;;;;2.67;1.45;;;30.00;54.70;;;;;;10491875;28;20080;-38
2022/08/24 00:20:29;;;;;;;2.10;1.30;;;30.00;54.80;;;;;;10483570;28;20052;-43
2022/08/24 00:25:31;;;;;;;2.15;1.20;;;30.00;55.40;;;;;;10479896;28;20102;-42
2022/08/24 00:30:34;;;;;;;2.70;1.50;;;30.00;54.90;;;;;;10488096;28;20111;-43
2022/08/24 00:35:36;;;;;;;1.88;1.13;;;29.90;54.90;;;;;;10479579;28;20123;-41
2022/08/24 00:40:42;;;;;;;2.15;1.15;;;29.90;55.00;;;;;;10485390;28;20152;-43
2022/08/24 00:45:51;;;;;;;2.10;1.27;;;29.80;55.00;;;;;;10492041;28;20095;-42
2022/08/24 00:50:57;;;;;;;4.35;1.38;;;29.80;55.00;;;;;;10487744;28;20086;-42
2022/08/24 00:56:05;;;;;;;1.40;1.00;;;29.80;55.00;;;;;;10496042;28;20481;-41
2022/08/24 01:01:12;;;;;;;2.33;1.27;;;29.70;55.10;;;;;;10471178;28;20137;-42
2022/08/24 01:06:14;;;;;;;3.30;1.63;;;29.70;55.10;;;;;;10477047;28;20060;-39
2022/08/24 01:11:21;;;;;;;2.67;1.25;;;29.70;55.20;;;;;;10488006;28;20041;-43
2022/08/24 01:21:48;;;;;;;;;;;29.60;55.20;;;;;;10496678;28;20044;-39
2022/08/24 01:26:51;;;;;;;2.50;1.23;;;29.60;55.30;;;;;;10481659;28;19966;-40
2022/08/24 01:31:54;;;;;;;2.25;1.00;;;29.50;55.20;;;;;;10494364;28;20453;-43
2022/08/24 01:36:59;;;;;;;2.17;1.10;;;29.50;55.30;;;;;;10489571;28;20075;-41
2022/08/24 01:42:03;;;;;;;1.63;1.00;;;29.40;55.30;;;;;;10486088;28;20055;-43
2022/08/24 01:47:07;;;;;;;1.73;1.05;;;29.40;55.30;;;;;;10490196;28;20439;-38
2022/08/24 01:52:12;;;;;;;2.00;0.98;;;29.40;55.40;;;;;;10493802;28;20098;-39
2022/08/24 01:57:15;;;;;;;3.15;1.10;;;29.30;55.40;;;;;;10480837;28;20036;-41
2022/08/24 02:02:21;;;;;;;1.50;1.05;;;29.30;55.40;;;;;;10491003;28;20127;-38
2022/08/24 02:07:23;;;;;;;2.28;1.10;;;29.30;55.40;;;;;;10492833;28;20090;-42
2022/08/24 02:12:27;;;;;;;2.85;1.15;;;29.30;55.50;;;;;;10496227;28;20143;-40
2022/08/24 02:17:29;;;;;;;2.33;1.30;;;29.30;55.50;;;;;;10491898;28;20132;-42
2022/08/24 02:22:31;;;;;;;1.98;1.00;;;29.20;55.50;;;;;;10482449;28;20182;-40
2022/08/24 02:27:34;;;;;;;1.48;0.93;;;29.20;55.50;;;;;;10485661;28;20181;-42
2022/08/24 02:32:36;;;;;;;2.25;0.90;;;29.20;55.60;;;;;;10489669;28;20052;-42
2022/08/24 02:37:38;;;;;;;1.45;0.63;;;29.20;55.70;;;;;;10486399;28;20110;-44
2022/08/24 02:42:42;;;;;;;1.40;0.82;;;29.10;56.20;;;;;;10487235;28;20087;-41
2022/08/24 02:47:44;;;;;;;3.28;0.73;;;29.10;55.70;;;;;;10485070;28;20091;-44
2022/08/24 02:52:46;;;;;;;1.88;1.00;;;29.10;55.80;;;;;;10488716;28;20048;-42
2022/08/24 02:57:50;;;;;;;1.25;0.65;;;29.00;55.80;;;;;;10494664;28;20173;-44
2022/08/24 03:02:53;;;;;;;1.98;0.80;;;29.10;56.00;;;;;;10492627;28;20058;-41
2022/08/24 03:07:55;;;;;;;1.42;0.80;;;29.00;55.80;;;;;;10487961;28;20064;-40
2022/08/24 03:13:00;;;;;;;1.33;0.80;;;29.00;56.00;;;;;;10487022;28;20044;-37
2022/08/24 03:18:01;;;;;;;1.05;0.73;;;29.00;56.00;;;;;;10468193;28;20056;-34
2022/08/24 03:23:04;;;;;;;2.97;1.00;;;28.90;56.00;;;;;;10488313;28;20125;-41
2022/08/24 03:28:07;;;;;;;2.30;0.90;;;28.90;56.00;;;;;;10495508;28;20463;-40
2022/08/24 03:33:10;;;;;;;1.63;0.90;;;28.90;56.00;;;;;;10485737;28;20554;-38
2022/08/24 03:38:12;;;;;;;1.50;0.80;;;28.90;56.10;;;;;;10481851;28;20076;-42
2022/08/24 03:48:32;;;;;;;0.88;0.77;;;28.80;56.10;;;;;;10489405;28;20552;-41
2022/08/24 03:53:34;;;;;;;2.33;1.00;;;28.80;56.10;;;;;;10488910;28;20048;-38
2022/08/24 03:58:40;;;;;;;1.65;1.17;;;28.80;56.20;;;;;;10491278;28;20090;-42
2022/08/24 04:03:44;;;;;;;2.75;0.98;;;28.80;56.20;;;;;;10501845;28;20048;-39
2022/08/24 04:08:46;;;;;;;3.42;1.27;;;28.70;56.20;;;;;;10490557;28;20080;-42
2022/08/24 04:13:51;;;;;;;1.50;0.85;;;28.70;56.30;;;;;;10499552;28;20049;-38
2022/08/24 04:18:53;;;;;;;1.55;0.80;;;28.70;56.30;;;;;;10486144;28;20048;-41
2022/08/24 04:23:56;;;;;;;1.98;1.48;;;28.70;56.30;;;;;;10480547;28;20091;-41
2022/08/24 04:29:01;;;;;;;0.68;0.65;;;28.70;56.30;;;;;;10488082;28;20045;-43
2022/08/24 04:34:03;;;;;;;2.25;0.65;;;28.70;56.60;;;;;;10493105;28;20047;-44
2022/08/24 04:39:05;;;;;;;0.85;0.52;;;28.70;56.60;;;;;;10488680;28;20484;-43
2022/08/24 04:44:08;;;;;;;1.13;0.57;;;28.70;56.70;;;;;;10473615;28;20060;-39
2022/08/24 04:49:10;;;;;;;1.40;0.80;;;28.70;56.90;;;;;;10494091;28;20552;-38
2022/08/24 04:54:12;;;;;;;1.50;0.60;;;28.70;57.00;;;;;;10476022;28;20141;-42
2022/08/24 04:59:16;;;;;;;1.42;0.70;;;28.70;57.00;;;;;;10475925;28;20041;-41
2022/08/24 05:04:17;;;;;;;1.63;0.68;;;28.70;57.00;;;;;;10476457;28;20098;-41
2022/08/24 05:09:19;;;;;;;2.17;0.77;;;28.70;57.10;;;;;;10495371;28;20064;-40
2022/08/24 05:14:22;;;;;;;0.85;0.60;;;28.70;57.30;;;;;;10489592;28;21842;-40
2022/08/24 05:19:24;;;;;;;2.33;0.98;;;28.60;57.30;;;;;;10489688;28;20094;-43
2022/08/24 05:24:27;;;;;;;2.05;0.68;;;28.60;57.40;;;;;;10479567;28;20076;-41
2022/08/24 05:29:32;;;;;;;2.03;0.93;;;28.70;57.50;;;;;;10490694;28;20103;-41
2022/08/24 05:34:35;;;;;;;2.85;1.13;;;28.60;57.50;;;;;;10492552;28;20041;-42
2022/08/24 05:39:37;;;;;;;1.63;0.80;;;28.60;57.50;;;;;;10479672;28;20058;-37
2022/08/24 05:44:40;;;;;;;1.48;0.65;;;28.60;57.50;;;;;;10489527;28;20110;-40
2022/08/24 05:49:42;;;;;;;1.55;0.90;;;28.60;57.50;;;;;;10495543;28;20105;-38
2022/08/24 05:54:44;;;;;;;3.30;0.75;;;28.60;57.50;;;;;;10482973;28;20087;-41
2022/08/24 05:59:48;;;;;;;2.17;0.70;;;28.60;57.40;;;;;;10488068;28;20147;-39
2022/08/24 06:04:50;;;;;;;3.38;0.80;;;28.60;57.40;;;;;;10489955;28;20056;-39
2022/08/24 06:09:52;;;;;;;2.78;0.77;;;28.60;57.50;;;;;;10496157;28;20048;-43
2022/08/24 06:14:56;;;;;;;0.90;0.60;;;28.60;57.50;;;;;;10486815;28;20132;-40
2022/08/24 06:19:58;;;;;;;2.63;0.60;;;28.60;57.50;;;;;;10482741;28;20106;-42
2022/08/24 06:30:21;;;;;;;1.60;0.60;;;28.70;57.40;;;;;;10498294;28;20060;-38
2022/08/24 06:35:23;;;;;;;1.77;0.80;;;28.70;57.40;;;;;;10485760;28;20049;-40
2022/08/24 06:40:25;;;;;;;1.20;0.60;;;28.60;57.30;;;;;;10482680;28;20458;-41
2022/08/24 06:45:29;;;;;;;1.38;0.70;;;28.70;57.40;;;;;;10472530;28;20055;-40
2022/08/24 06:50:31;;;;;;;6.45;1.50;;;28.60;57.30;;;;;;10479385;28;20077;-42
2022/08/24 06:55:33;;;;;;;2.72;0.90;;;28.50;57.60;;;;;;10495903;28;20072;-40
2022/08/24 07:00:36;;;;;;;3.83;1.75;;;28.40;58.20;;;;;;10488009;28;20456;-40
2022/08/24 07:05:38;;;;;;;2.65;1.10;;;27.80;59.50;;;;;;10486289;28;20564;-41
2022/08/24 07:10:41;;;;;;;1.90;0.88;;;28.40;58.10;;;;;;10494301;28;20048;-43
2022/08/24 07:15:45;;;;;;;1.63;0.75;;;28.60;57.50;;;;;;10483794;28;20074;-43
2022/08/24 07:20:48;;;;;;;1.88;0.68;;;28.60;57.50;;;;;;10486559;28;20102;-43
2022/08/24 07:25:49;;;;;;;3.70;1.42;;;28.70;57.20;;;;;;10490438;28;20044;-42
2022/08/24 07:30:53;;;;;;;2.35;0.43;;;28.70;57.80;;;;;;10499015;28;20465;-41
2022/08/24 07:35:55;;;;;;;4.43;1.60;;;28.60;57.50;;;;;;10501022;28;20730;-45
2022/08/24 07:40:58;;;;;;;3.55;2.40;;;27.20;62.50;;;;;;10498270;28;20060;-41
2022/08/24 07:46:01;;;;;;;0.98;0.68;;;27.30;61.10;;;;;;10493482;28;20739;-43
2022/08/24 07:51:07;;;;;;;4.57;1.60;;;28.00;59.40;;;;;;10486215;28;20072;-42
2022/08/24 07:56:12;;;;;;;1.63;0.80;;;27.80;59.70;;;;;;10483823;28;20053;-40
2022/08/24 08:01:17;;;;;;;1.30;0.60;;;28.10;58.90;;;;;;10501405;28;20057;-42
2022/08/24 08:06:19;;;;;;;1.27;0.90;;;28.60;57.50;;;;;;10491051;28;20087;-42
2022/08/24 08:11:21;;;;;;;1.42;0.60;;;27.80;59.70;;;;;;10485959;28;20049;-41
2022/08/24 08:16:25;;;;;;;0.55;0.40;;;28.40;58.40;;;;;;10495263;28;20478;-38
2022/08/24 08:26:49;;;;;;;0.80;0.38;;;28.90;57.30;;;;;;10476822;28;20470;-41
2022/08/24 08:31:52;;;;;;;1.75;0.82;;;29.00;57.10;;;;;;10496364;28;20163;-37
2022/08/24 08:36:54;;;;;;;0.75;0.30;;;28.10;59.00;;;;;;10491652;28;20148;-45
2022/08/24 08:42:20;;;;;;;2.58;0.50;;;28.40;58.70;;;;;;10494490;28;20126;-40
2022/08/24 08:48:00;;;;;;;0.93;0.30;;;29.00;56.90;;;;;;10490664;28;20064;-40
2022/08/24 08:53:25;;;;;;;1.05;0.40;;;28.40;58.30;;;;;;10484249;28;20059;-45
2022/08/24 08:58:48;;;;;;;1.52;0.68;;;29.10;57.10;;;;;;10498464;28;20049;-42
2022/08/24 09:04:19;;;;;;;1.05;0.52;;;28.00;59.80;;;;;;10491844;28;20045;-44
2022/08/24 09:09:40;;;;;;;3.00;0.40;;;28.10;59.60;;;;;;10483482;28;20128;-43
2022/08/24 09:15:07;;;;;;;0.80;0.45;;;29.00;57.20;;;;;;10494965;28;20048;-38
2022/08/24 09:20:24;;;;;;;1.10;0.45;;;29.20;56.90;;;;;;10485808;28;20094;-40
2022/08/24 09:25:32;;;;;;;0.30;0.20;;;29.30;56.60;;;;;;10490291;28;20094;-43
2022/08/24 09:30:56;;;;;;;0.52;0.30;;;29.30;56.50;;;;;;10482399;28;20474;-43
2022/08/24 09:36:10;;;;;;;0.40;0.20;;;29.50;56.10;;;;;;10488936;28;20055;-41
2022/08/24 09:41:37;;;;;;;0.57;0.20;;;29.30;57.80;;;;;;10483435;28;20470;-42
2022/08/24 09:47:08;;;;;;;0.30;0.30;;;29.50;56.20;;;;;;10489491;28;20056;-39
2022/08/24 09:52:37;;;;;;;0.20;0.20;;;28.70;58.30;;;;;;10487552;28;20043;-40
2022/08/24 09:57:52;;;;;;;0.20;0.20;;;29.50;56.20;;;;;;10487698;28;20056;-39
2022/08/24 10:03:10;;;;;;;1.85;0.30;;;28.20;59.40;;;;;;10474118;28;20053;-40
2022/08/24 10:08:27;;;;;;;0.15;0.10;;;28.90;58.60;;;;;;10481307;28;20469;-43
2022/08/24 10:13:38;;;;;;;0.20;0.20;;;29.20;57.20;;;;;;10465656;28;20052;-41
2022/08/24 10:18:54;;;;;;;1.10;0.50;;;29.60;57.00;;;;;;10485377;28;20057;-41
2022/08/24 10:24:15;;;;;;;0.45;0.38;;;29.60;56.60;;;;;;10469439;28;20132;-43
2022/08/24 10:29:32;;;;;;;1.85;0.50;;;29.90;55.90;;;;;;10482505;28;20044;-38
2022/08/24 10:34:49;;;;;;;4.68;1.40;;;28.60;60.80;;;;;;10470428;28;20056;-41
2022/08/24 10:40:12;;;;;;;2.10;1.00;;;27.10;65.00;;;;;;10457462;28;20053;-41
2022/08/24 10:45:25;;;;;;;2.50;0.93;;;26.60;67.50;;;;;;10466681;28;20160;-44
2022/08/24 10:50:40;;;;;;;3.40;1.38;;;27.10;64.20;;;;;;10484937;28;20505;-41
2022/08/24 10:55:44;;;;;;;5.55;2.03;;;26.90;65.60;;;;;;10471862;28;20539;-42
2022/08/24 11:00:46;;;;;;;4.00;1.40;;;27.90;62.20;;;;;;10482759;28;20111;-43
2022/08/24 11:05:50;;;;;;;9.55;0.80;;;28.00;62.60;;;;;;10491698;28;20135;-37
2022/08/24 11:11:07;;;;;;;2.80;0.90;;;27.70;65.00;;;;;;10479290;28;20867;-35
2022/08/24 11:16:18;;;;;;;2.45;0.80;;;27.60;65.10;;;;;;10480222;28;20083;-34
2022/08/24 11:21:37;;;;;;;3.35;0.90;;;28.00;63.90;;;;;;10475410;28;20099;-35
2022/08/24 11:26:51;;;;;;;1.02;0.68;;;28.10;61.90;;;;;;10477707;28;20520;-41
2022/08/24 11:31:53;;;;;;;1.00;0.73;;;27.80;63.60;;;;;;10479889;28;20090;-33
2022/08/24 11:36:55;;;;;;;2.55;0.88;;;27.70;63.10;;;;;;10487124;28;20127;-35
2022/08/24 11:42:03;;;;;;;1.67;0.70;;;27.60;63.80;;;;;;10484522;28;20472;-35
2022/08/24 11:47:29;;;;;;;1.60;0.73;;;27.60;64.50;;;;;;10478827;28;20084;-35
2022/08/24 11:52:41;;;;;;;0.90;0.43;;;28.10;62.80;;;;;;10494140;28;20409;-35
2022/08/24 11:57:47;;;;;;;;;;;27.60;63.80;;;;;;10475550;28;20052;-36
2022/08/24 12:02:57;;;;;;;4.50;0.50;;;26.60;66.30;;;;;;10461576;28;19935;-34
2022/08/24 12:08:10;;;;;;;1.98;0.60;;;28.10;64.20;;;;;;10478444;28;20136;-34
2022/08/24 12:13:32;;;;;;;1.75;0.40;;;27.90;64.50;;;;;;10479330;28;20075;-32
2022/08/24 12:18:47;;;;;;;2.50;0.50;;;28.50;63.00;;;;;;10490603;28;20135;-36
2022/08/24 12:23:51;;;;;;;2.13;0.50;;;28.40;63.10;;;;;;10483790;28;20135;-36
2022/08/24 12:29:01;;;;;;;0.70;0.50;;;28.20;62.60;;;;;;10493582;28;20048;-33
2022/08/24 12:34:08;;;;;;;1.70;0.60;;;28.40;62.60;;;;;;10482324;28;20045;-34
2022/08/24 12:39:13;;;;;;;2.00;0.50;;;29.00;61.90;;;;;;10494432;28;20067;-39
2022/08/24 12:44:18;;;;;;;1.90;0.60;;;28.30;63.80;;;;;;10483410;28;20084;-43
2022/08/24 12:49:28;;;;;;;1.55;0.65;;;30.00;58.20;;;;;;10481949;28;20166;-43
2022/08/24 12:54:56;;;;;;;11.52;0.80;;;29.80;58.90;;;;;;10487872;28;20094;-40
2022/08/24 13:00:06;;;;;;;1.17;0.40;;;29.50;60.00;;;;;;10483778;28;20489;-41
2022/08/24 13:05:14;;;;;;;1.10;0.32;;;29.00;61.90;;;;;;10475293;28;20470;-43
2022/08/24 13:10:37;;;;;;;3.25;0.73;;;29.10;61.60;;;;;;10486892;28;20044;-43
2022/08/24 13:15:57;;;;;;;1.23;0.43;;;28.70;63.10;;;;;;10485030;28;20056;-42
2022/08/24 13:20:59;;;;;;;0.55;0.50;;;29.30;61.60;;;;;;10481680;28;20133;-42
2022/08/24 13:26:21;;;;;;;0.80;0.60;;;30.00;60.00;;;;;;10482898;28;20052;-41
2022/08/24 13:31:32;;;;;;;0.65;0.40;;;29.90;60.60;;;;;;10471981;28;20037;-41
2022/08/24 13:36:46;;;;;;;2.40;1.02;;;29.30;62.20;;;;;;10492111;28;20410;-40
2022/08/24 13:41:54;;;;;;;2.92;0.52;;;29.50;62.00;;;;;;10496836;28;20109;-43
2022/08/24 13:47:07;;;;;;;0.65;0.55;;;29.90;61.20;;;;;;10492690;28;20041;-39
2022/08/24 13:52:18;;;;;;;1.65;0.55;;;29.50;61.50;;;;;;10483643;28;20070;-40
2022/08/24 13:57:31;;;;;;;2.65;1.13;;;29.80;62.10;;;;;;10487317;28;20132;-41
2022/08/24 14:02:59;;;;;;;2.35;0.70;;;29.70;62.00;;;;;;10484667;28;20473;-41
2022/08/24 14:08:15;;;;;;;5.38;0.98;;;29.50;62.50;;;;;;10494092;28;20043;-41
2022/08/24 14:13:35;;;;;;;2.60;0.63;;;30.20;62.10;;;;;;10486120;28;20040;-40
2022/08/24 14:18:51;;;;;;;1.63;0.70;;;30.90;60.80;;;;;;10485479;28;20157;-41
2022/08/24 14:24:01;;;;;;;1.23;0.80;;;31.70;58.10;;;;;;10486724;28;20139;-40
2022/08/24 14:29:32;;;;;;;1.92;0.73;;;32.30;56.50;;;;;;10484247;28;20123;-42
2022/08/24 14:34:43;;;;;;;2.13;0.55;;;32.00;56.90;;;;;;10457757;28;20067;-43
2022/08/24 14:39:51;;;;;;;1.75;0.85;;;32.20;56.20;;;;;;10480483;28;20508;-42
2022/08/24 14:45:06;;;;;;;2.13;0.35;;;32.20;56.70;;;;;;10469834;28;20143;-43
2022/08/24 14:50:15;;;;;;;2.15;0.70;;;32.60;57.50;;;;;;10486290;28;20048;-40
2022/08/24 14:55:24;;;;;;;1.75;0.70;;;32.00;56.80;;;;;;10485687;28;20076;-43
2022/08/24 15:00:47;;;;;;;4.28;0.77;;;32.30;56.10;;;;;;10489597;28;20055;-43
2022/08/24 15:06:05;;;;;;;0.80;0.60;;;33.30;54.30;;;;;;10477858;28;20115;-41
2022/08/24 15:11:10;;;;;;;0.82;0.60;;;33.70;54.00;;;;;;10459611;28;20041;-43
2022/08/24 15:16:16;;;;;;;1.20;0.65;;;33.40;56.80;;;;;;10489101;28;20175;-42
2022/08/24 15:21:28;;;;;;;2.45;0.80;;;34.00;54.70;;;;;;10480735;28;20443;-42
2022/08/24 15:26:41;;;;;;;2.35;0.93;;;35.10;51.60;;;;;;10473753;28;20107;-43
2022/08/24 15:31:54;;;;;;;2.25;1.02;;;35.00;54.40;;;;;;10475913;28;20095;-40
2022/08/24 15:37:00;;;;;;;6.15;1.10;;;36.20;50.00;;;;;;10482787;28;20056;-38
2022/08/24 15:42:09;;;;;;;2.13;1.10;;;36.40;48.20;;;;;;10475688;28;20405;-37
2022/08/24 15:47:25;;;;;;;1.55;0.85;;;35.70;50.70;;;;;;10477984;28;20049;-40
2022/08/24 15:52:46;;;;;;;1.05;0.50;;;36.20;51.80;;;;;;10492060;28;20048;-40
2022/08/24 15:57:48;;;;;;;1.05;0.43;;;37.80;46.70;;;;;;10491118;28;20497;-42
2022/08/24 16:02:50;;;;;;;2.70;0.95;;;37.60;50.30;;;;;;10474201;28;20056;-42
2022/08/24 16:08:08;;;;;;;1.17;0.80;;;38.20;46.00;;;;;;10483666;28;20566;-41
2022/08/24 16:13:20;;;;;;;1.30;0.60;;;37.70;52.20;;;;;;10488872;28;20054;-42
2022/08/24 16:18:23;;;;;;;0.73;0.60;;;37.30;50.00;;;;;;10486338;28;20040;-43
2022/08/24 16:23:30;;;;;;;0.47;0.43;;;38.10;51.10;;;;;;10480431;28;20140;-38
2022/08/24 16:28:35;;;;;;;0.82;0.63;;;38.30;54.30;;;;;;10479948;28;20048;-40
2022/08/24 16:33:42;;;;;;;1.67;0.90;;;38.90;50.10;;;;;;10486324;28;20070;-40
2022/08/24 16:38:48;;;;;;;1.60;0.70;;;38.40;51.30;;;;;;10481554;28;20048;-40
2022/08/24 16:43:50;;;;;;;1.05;0.40;;;38.40;47.70;;;;;;10492317;28;20075;-42
2022/08/24 16:48:52;;;;;;;1.02;0.43;;;38.70;49.40;;;;;;10490513;28;20128;-43
2022/08/24 16:53:56;;;;;;;3.67;0.90;;;38.30;53.80;;;;;;10472126;28;20049;-38
2022/08/24 16:58:58;;;;;;;0.35;0.28;;;38.50;50.30;;;;;;10478542;28;20045;-38
2022/08/24 17:04:00;;;;;;;1.27;0.82;;;37.60;56.50;;;;;;10504557;28;20148;-41
2022/08/24 17:09:03;;;;;;;2.35;1.23;;;37.60;55.00;;;;;;10487495;28;20098;-42
2022/08/24 17:14:05;;;;;;;0.82;0.40;;;36.80;54.30;;;;;;10481902;28;20339;-38
2022/08/24 17:19:10;;;;;;;2.08;1.00;;;36.40;59.00;;;;;;10471373;28;20086;-35
2022/08/24 17:24:15;;;;;;;1.67;1.02;;;36.10;56.20;;;;;;10467616;28;20060;-37
2022/08/24 17:29:18;;;;;;;6.05;0.75;;;36.00;52.10;;;;;;10482341;28;20052;-39
2022/08/24 17:34:21;;;;;;;0.63;0.60;;;36.00;59.00;;;;;;10483858;28;20405;-42
2022/08/24 17:39:25;;;;;;;0.55;0.52;;;35.90;58.60;;;;;;10486478;28;20386;-40
2022/08/24 17:44:30;;;;;;;1.00;0.70;;;35.80;58.10;;;;;;10488733;28;20063;-34
2022/08/24 17:49:33;;;;;;;4.45;0.95;;;35.30;57.30;;;;;;10481434;28;20055;-41
2022/08/24 17:54:36;;;;;;;1.20;0.60;;;34.80;58.20;;;;;;10481717;28;20050;-40
2022/08/24 17:59:38;;;;;;;0.60;0.40;;;35.40;58.70;;;;;;10478798;28;20116;-41
2022/08/24 18:04:42;;;;;;;0.98;0.47;;;35.30;58.20;;;;;;10492345;28;20145;-41
2022/08/24 18:09:47;;;;;;;0.60;0.60;;;35.50;57.70;;;;;;10481687;28;20048;-43
2022/08/24 18:14:50;;;;;;;1.17;0.82;;;35.50;57.30;;;;;;10486161;28;20526;-43
2022/08/24 18:19:54;;;;;;;1.23;0.70;;;35.40;57.90;;;;;;10476047;28;20462;-43
2022/08/24 18:24:57;;;;;;;1.42;0.82;;;35.20;57.80;;;;;;10493081;28;20572;-43
2022/08/24 18:30:04;;;;;;;1.85;0.85;;;35.20;58.80;;;;;;10490529;28;20109;-43
2022/08/24 18:35:07;;;;;;;2.25;1.10;;;35.10;58.30;;;;;;10476563;28;20051;-44
2022/08/24 18:40:12;;;;;;;4.60;1.52;;;34.90;57.90;;;;;;10481868;28;20137;-40
2022/08/24 18:45:14;;;;;;;3.40;1.50;;;34.70;56.90;;;;;;10482453;28;20053;-44
2022/08/24 18:50:16;;;;;;;4.30;1.60;;;34.50;56.70;;;;;;10481179;28;20056;-42
2022/08/24 18:55:26;;;;;;;3.42;1.52;;;34.40;56.60;;;;;;10488510;28;20143;-43
2022/08/24 19:00:28;;;;;;;;;;;34.30;56.40;;;;;;10476503;28;20041;-45
2022/08/24 19:05:30;;;;;;;2.13;1.40;;;34.20;56.40;;;;;;10479278;28;20340;-42
2022/08/24 19:10:36;;;;;;;3.03;1.63;;;34.10;55.90;;;;;;10484557;28;20478;-39
2022/08/24 19:15:38;;;;;;;2.00;1.70;;;34.00;55.90;;;;;;10479328;28;20071;-43
2022/08/24 19:20:41;;;;;;;3.35;1.58;;;33.90;55.80;;;;;;10484503;28;20447;-41
2022/08/24 19:25:45;;;;;;;3.15;1.98;;;33.80;55.70;;;;;;10483984;28;20052;-45
2022/08/24 19:30:47;;;;;;;2.63;1.52;;;33.70;55.50;;;;;;10490001;28;20052;-42
2022/08/24 19:35:51;;;;;;;1.73;1.40;;;33.70;55.60;;;;;;10488358;28;20415;-43
2022/08/24 19:40:56;;;;;;;3.40;1.30;;;33.60;55.60;;;;;;10498252;28;20057;-41
2022/08/24 19:46:06;;;;;;;1.83;1.38;;;33.50;55.40;;;;;;10484617;28;20101;-42
2022/08/24 19:51:12;;;;;;;2.55;1.30;;;33.40;55.30;;;;;;10489438;28;20055;-40
2022/08/24 19:56:15;;;;;;;1.38;1.20;;;33.40;55.30;;;;;;10487816;28;20048;-43
2022/08/24 20:01:19;;;;;;;3.60;1.42;;;33.30;55.20;;;;;;10474155;28;20186;-42
2022/08/24 20:06:23;;;;;;;3.60;1.60;;;33.20;55.00;;;;;;10487484;28;20049;-43
2022/08/24 20:11:27;;;;;;;3.42;1.25;;;33.20;55.00;;;;;;10494915;28;20074;-42
2022/08/24 20:16:34;;;;;;;3.28;1.45;;;33.10;55.00;;;;;;10485082;28;20853;-45
2022/08/24 20:21:36;;;;;;;3.47;1.45;;;33.10;55.20;;;;;;10487890;28;20052;-40
2022/08/24 20:26:46;;;;;;;2.83;1.50;;;33.00;55.20;;;;;;10491637;28;20052;-42
2022/08/24 20:31:48;;;;;;;4.47;1.57;;;32.90;55.10;;;;;;10485067;28;20044;-42
2022/08/24 20:36:50;;;;;;;3.03;1.50;;;32.90;55.00;;;;;;10488936;28;20076;-39
2022/08/24 20:41:54;;;;;;;6.28;1.58;;;32.90;55.20;;;;;;10476728;28;20121;-45
2022/08/24 20:46:56;;;;;;;4.05;1.80;;;32.80;55.30;;;;;;10490987;28;20082;-40
2022/08/24 20:51:58;;;;;;;2.15;1.40;;;32.70;55.30;;;;;;10485057;28;20052;-42
2022/08/24 20:57:02;;;;;;;1.50;1.40;;;32.70;55.40;;;;;;10483580;28;20127;-42
2022/08/24 21:02:04;;;;;;;2.33;1.25;;;32.70;55.40;;;;;;10489535;28;20097;-44
2022/08/24 21:07:10;;;;;;;2.03;1.10;;;32.60;55.50;;;;;;10478273;28;20458;-44
2022/08/24 21:12:13;;;;;;;1.85;1.30;;;32.60;55.60;;;;;;10486215;28;20488;-39
2022/08/24 21:17:15;;;;;;;2.30;1.27;;;32.50;55.50;;;;;;10486432;28;20128;-45
2022/08/24 21:22:17;;;;;;;2.65;1.02;;;32.50;55.70;;;;;;10485019;28;20470;-43
2022/08/24 21:27:20;;;;;;;2.63;1.15;;;32.40;55.60;;;;;;10493486;28;20075;-42
2022/08/24 21:37:41;;;;;;;2.25;1.10;;;32.40;55.70;;;;;;10487783;28;20131;-44
2022/08/24 21:42:44;;;;;;;1.55;1.10;;;32.30;55.80;;;;;;10498098;28;20496;-44
2022/08/24 21:47:46;;;;;;;1.52;1.00;;;32.30;55.80;;;;;;10474661;28;20123;-42
2022/08/24 21:52:49;;;;;;;1.13;0.80;;;32.20;55.90;;;;;;10487544;28;20049;-44
2022/08/24 21:57:52;;;;;;;0.90;0.90;;;32.20;55.90;;;;;;10489644;28;20049;-41
2022/08/24 22:02:54;;;;;;;1.63;1.10;;;32.10;55.80;;;;;;10489998;28;20085;-40
2022/08/24 22:07:56;;;;;;;1.65;0.80;;;32.10;56.00;;;;;;10478977;28;20133;-44
2022/08/24 22:12:59;;;;;;;2.22;1.08;;;32.00;55.90;;;;;;10473059;28;20049;-45
2022/08/24 22:18:01;;;;;;;1.30;0.90;;;32.00;55.90;;;;;;10477328;28;20386;-38
2022/08/24 22:23:04;;;;;;;2.10;1.00;;;32.00;56.00;;;;;;10483138;28;20122;-42
2022/08/24 22:28:07;;;;;;;3.65;0.70;;;31.90;56.00;;;;;;10482256;28;20044;-42
2022/08/24 22:33:09;;;;;;;1.45;1.00;;;31.90;56.10;;;;;;10493860;28;20146;-44
2022/08/24 22:38:11;;;;;;;3.38;1.25;;;31.80;56.10;;;;;;10482777;28;20082;-37
2022/08/24 22:43:14;;;;;;;1.63;0.80;;;31.80;56.10;;;;;;10477260;28;20092;-42
2022/08/24 22:48:16;;;;;;;1.25;0.90;;;31.70;56.20;;;;;;10485791;28;20492;-42
2022/08/24 22:53:18;;;;;;;1.08;0.98;;;31.70;56.20;;;;;;10493335;28;20121;-42
2022/08/24 22:58:21;;;;;;;0.75;0.73;;;31.60;56.20;;;;;;10486619;28;20155;-43
2022/08/24 23:03:23;;;;;;;1.45;0.90;;;31.60;56.30;;;;;;10485820;28;20052;-42
2022/08/24 23:08:25;;;;;;;1.33;0.80;;;31.60;56.40;;;;;;10483910;28;20045;-42
2022/08/24 23:13:28;;;;;;;1.48;0.80;;;31.50;56.40;;;;;;10482079;28;20068;-43
2022/08/24 23:23:50;;;;;;;0.98;0.88;;;31.50;56.50;;;;;;10486762;28;20106;-44
2022/08/24 23:28:53;;;;;;;0.60;0.60;;;31.40;56.50;;;;;;10486639;28;20118;-43
2022/08/24 23:33:57;;;;;;;2.65;0.90;;;31.40;56.60;;;;;;10494933;28;20571;-41
2022/08/24 23:38:59;;;;;;;3.20;0.98;;;31.30;56.60;;;;;;10477894;28;20048;-41
2022/08/24 23:44:04;;;;;;;1.20;0.80;;;31.30;56.70;;;;;;10482039;28;20084;-39
2022/08/24 23:49:07;;;;;;;0.82;0.80;;;31.30;56.70;;;;;;10485096;28;20601;-45
2022/08/24 23:54:11;;;;;;;1.08;0.82;;;31.20;56.80;;;;;;10491506;28;20131;-45
2022/08/24 23:59:18;;;;;;;2.05;1.00;;;31.20;56.90;;;;;;10485094;28;20476;-44
